Aérodrome :
LOGIN :

S'inscrire | Disclaimer

   EN    FR    IT 

 










Légende :    VFR   VFR Marginal   IFR   IFR Intensif   IFR Très Intensif
Visi : 
Plafond : 
>= 8 km
>= 3000ft
5 à 8 km
1000 à 3000 ft
1500m à 5 km
500 à 1000 ft
800 à 1500m
200 à 500 ft
< 800m
< 200 ft
Symboles :   Orages  Brouillard  Fortes neiges  Fortes précipitations  Vent > 20 kt
SIGMETs :   Divers  Orages  Givrage  Turbulence  Onde Orograph.  Cendres Volcan.






- Altitude de l'aérodrome : 359 ft
- Code IATA : BVA


LFOB - Beauvais

DERNIER METAR :
  • 051630Z AUTO 13010KT 9999 -RA BKN038/// OVC045/// ///TCU 05/04 Q0993 TEMPO 4000 RA BKN013

METARs EXPIRÉS :
  • 051600Z AUTO 11012KT 9999 FEW017/// SCT026/// BKN049/// ///TCU 04/04 Q0993 TEMPO 4000 RA BKN013
  • 051530Z AUTO 11011KT 9999 -RA FEW014 BKN022 BKN027 04/04 Q0993 TEMPO 4000 RA BKN013
  • 051500Z AUTO 13011KT 8000 -RADZ BKN019 OVC024 04/03 Q0993 TEMPO 4000 RA BKN013
  • 051430Z AUTO 13009KT 9999 -RA BKN024 OVC031 05/03 Q0993 TEMPO 4000 RA BKN013
  • 051400Z AUTO 14009KT 9999 FEW021 OVC028 05/02 Q0993 NOSIG

TAF TAF LFOB
Valide du 05 à 12h jusqu'au 06 à 12h UTC


051100Z 0512/0612 16012KT 9999 BKN025
TEMPO 0516/0520 4000 RA BKN013
BECMG 0600/0603 10007KT
ATIS : +33 3 44 11 49 28



MET'MAP, la Météo Aéronautique d'un coup d'oeil ! - Copyright ORBIFLY Décembre 2007 - Disclaimer

ORBIFLY MET'MAP TEAM :

Programmation & Développement : Alexandra Zaïnal
Sur une idée originale de : Baudouin d'Aumeries
Assistance à la programmation : Marc-Olivier Méhu
Soutien technique & logistique : Manuel Goepfert

Contact : metmap@orbifly.com




SOURCES & CREDITS :

   NOAA